sensor_id;sensor_type;location;lat;lon;timestamp;P1;durP1;ratioP1;P2;durP2;ratioP2
3571;SDS011;7958;53.024;12.970;2022-07-26T00:01:29;7.80;;;6.47;;
3571;SDS011;7958;53.024;12.970;2022-07-26T00:03:58;7.10;;;6.40;;
3571;SDS011;7958;53.024;12.970;2022-07-26T00:06:25;9.33;;;6.40;;
3571;SDS011;7958;53.024;12.970;2022-07-26T00:08:51;9.77;;;6.80;;
3571;SDS011;7958;53.024;12.970;2022-07-26T00:11:18;10.00;;;6.93;;
3571;SDS011;7958;53.024;12.970;2022-07-26T00:13:45;9.07;;;6.63;;
3571;SDS011;7958;53.024;12.970;2022-07-26T00:16:12;8.40;;;7.57;;
3571;SDS011;7958;53.024;12.970;2022-07-26T00:18:38;8.33;;;7.43;;
3571;SDS011;7958;53.024;12.970;2022-07-26T00:21:06;8.73;;;7.30;;
3571;SDS011;7958;53.024;12.970;2022-07-26T00:23:32;10.63;;;9.10;;
3571;SDS011;7958;53.024;12.970;2022-07-26T00:25:59;9.97;;;7.97;;
3571;SDS011;7958;53.024;12.970;2022-07-26T00:28:25;11.67;;;8.80;;
3571;SDS011;7958;53.024;12.970;2022-07-26T00:30:52;9.77;;;8.57;;
3571;SDS011;7958;53.024;12.970;2022-07-26T00:33:18;10.60;;;9.47;;
3571;SDS011;7958;53.024;12.970;2022-07-26T00:35:44;11.83;;;8.70;;
3571;SDS011;7958;53.024;12.970;2022-07-26T00:38:12;11.83;;;9.27;;
3571;SDS011;7958;53.024;12.970;2022-07-26T00:40:38;11.73;;;10.43;;
3571;SDS011;7958;53.024;12.970;2022-07-26T00:43:05;11.40;;;9.33;;
3571;SDS011;7958;53.024;12.970;2022-07-26T00:45:31;9.13;;;8.20;;
3571;SDS011;7958;53.024;12.970;2022-07-26T00:47:58;13.67;;;9.37;;
3571;SDS011;7958;53.024;12.970;2022-07-26T00:50:24;13.90;;;9.70;;
3571;SDS011;7958;53.024;12.970;2022-07-26T00:52:51;15.77;;;9.80;;
3571;SDS011;7958;53.024;12.970;2022-07-26T00:55:19;13.67;;;10.37;;
3571;SDS011;7958;53.024;12.970;2022-07-26T00:57:46;11.53;;;10.43;;
3571;SDS011;7958;53.024;12.970;2022-07-26T01:00:13;12.97;;;9.97;;
3571;SDS011;7958;53.024;12.970;2022-07-26T01:02:42;12.30;;;10.20;;
3571;SDS011;7958;53.024;12.970;2022-07-26T01:05:08;13.40;;;9.23;;
3571;SDS011;7958;53.024;12.970;2022-07-26T01:07:35;14.20;;;10.17;;
3571;SDS011;7958;53.024;12.970;2022-07-26T01:10:03;13.63;;;9.63;;
3571;SDS011;7958;53.024;12.970;2022-07-26T01:12:31;11.17;;;9.33;;
3571;SDS011;7958;53.024;12.970;2022-07-26T01:14:58;10.80;;;9.53;;
3571;SDS011;7958;53.024;12.970;2022-07-26T01:17:24;13.50;;;10.40;;
3571;SDS011;7958;53.024;12.970;2022-07-26T01:19:50;14.13;;;10.20;;
3571;SDS011;7958;53.024;12.970;2022-07-26T01:22:18;10.70;;;8.40;;
3571;SDS011;7958;53.024;12.970;2022-07-26T01:24:45;12.50;;;9.90;;
3571;SDS011;7958;53.024;12.970;2022-07-26T01:27:11;11.33;;;9.80;;
3571;SDS011;7958;53.024;12.970;2022-07-26T01:29:38;13.70;;;10.47;;
3571;SDS011;7958;53.024;12.970;2022-07-26T01:32:05;15.27;;;10.57;;
3571;SDS011;7958;53.024;12.970;2022-07-26T01:34:32;11.00;;;10.00;;
3571;SDS011;7958;53.024;12.970;2022-07-26T01:36:58;15.90;;;10.40;;
3571;SDS011;7958;53.024;12.970;2022-07-26T01:39:26;11.77;;;9.53;;
3571;SDS011;7958;53.024;12.970;2022-07-26T01:41:53;11.73;;;9.60;;
3571;SDS011;7958;53.024;12.970;2022-07-26T01:44:20;11.17;;;9.30;;
3571;SDS011;7958;53.024;12.970;2022-07-26T01:46:47;10.47;;;9.40;;
3571;SDS011;7958;53.024;12.970;2022-07-26T01:49:14;11.83;;;9.83;;
3571;SDS011;7958;53.024;12.970;2022-07-26T01:51:40;11.97;;;9.67;;
3571;SDS011;7958;53.024;12.970;2022-07-26T01:54:07;10.20;;;9.20;;
3571;SDS011;7958;53.024;12.970;2022-07-26T01:56:35;13.50;;;9.67;;
3571;SDS011;7958;53.024;12.970;2022-07-26T01:59:01;11.13;;;8.63;;
3571;SDS011;7958;53.024;12.970;2022-07-26T02:01:28;11.57;;;10.37;;
3571;SDS011;7958;53.024;12.970;2022-07-26T02:03:54;15.40;;;9.20;;
3571;SDS011;7958;53.024;12.970;2022-07-26T02:06:21;10.43;;;8.70;;
3571;SDS011;7958;53.024;12.970;2022-07-26T02:08:47;16.30;;;10.60;;
3571;SDS011;7958;53.024;12.970;2022-07-26T02:11:13;12.70;;;10.13;;
3571;SDS011;7958;53.024;12.970;2022-07-26T02:13:41;13.03;;;8.83;;
3571;SDS011;7958;53.024;12.970;2022-07-26T02:16:08;12.80;;;8.87;;
3571;SDS011;7958;53.024;12.970;2022-07-26T02:18:35;16.97;;;11.00;;
3571;SDS011;7958;53.024;12.970;2022-07-26T02:21:02;17.00;;;11.77;;
3571;SDS011;7958;53.024;12.970;2022-07-26T02:23:29;17.33;;;11.27;;
3571;SDS011;7958;53.024;12.970;2022-07-26T02:25:56;18.17;;;11.60;;
3571;SDS011;7958;53.024;12.970;2022-07-26T02:28:25;14.07;;;11.57;;
3571;SDS011;7958;53.024;12.970;2022-07-26T02:30:53;16.03;;;11.60;;
3571;SDS011;7958;53.024;12.970;2022-07-26T02:33:20;13.20;;;11.27;;
3571;SDS011;7958;53.024;12.970;2022-07-26T02:35:46;17.03;;;12.10;;
3571;SDS011;7958;53.024;12.970;2022-07-26T02:38:13;15.30;;;11.67;;
3571;SDS011;7958;53.024;12.970;2022-07-26T02:40:41;13.40;;;11.17;;
3571;SDS011;7958;53.024;12.970;2022-07-26T02:43:08;16.20;;;10.93;;
3571;SDS011;7958;53.024;12.970;2022-07-26T02:45:35;16.50;;;10.97;;
3571;SDS011;7958;53.024;12.970;2022-07-26T02:48:03;15.50;;;11.23;;
3571;SDS011;7958;53.024;12.970;2022-07-26T02:50:30;16.20;;;11.20;;
3571;SDS011;7958;53.024;12.970;2022-07-26T02:52:56;15.07;;;10.57;;
3571;SDS011;7958;53.024;12.970;2022-07-26T02:55:24;15.10;;;11.83;;
3571;SDS011;7958;53.024;12.970;2022-07-26T02:57:51;14.77;;;10.53;;
3571;SDS011;7958;53.024;12.970;2022-07-26T03:00:19;12.00;;;10.70;;
3571;SDS011;7958;53.024;12.970;2022-07-26T03:02:46;16.70;;;10.73;;
3571;SDS011;7958;53.024;12.970;2022-07-26T03:05:16;14.50;;;10.70;;
3571;SDS011;7958;53.024;12.970;2022-07-26T03:07:43;17.83;;;10.20;;
3571;SDS011;7958;53.024;12.970;2022-07-26T03:10:09;14.20;;;10.37;;
3571;SDS011;7958;53.024;12.970;2022-07-26T03:12:36;14.43;;;10.37;;
3571;SDS011;7958;53.024;12.970;2022-07-26T03:15:02;14.20;;;10.07;;
3571;SDS011;7958;53.024;12.970;2022-07-26T03:17:30;15.33;;;9.77;;
3571;SDS011;7958;53.024;12.970;2022-07-26T03:19:56;15.63;;;9.80;;
3571;SDS011;7958;53.024;12.970;2022-07-26T03:22:24;12.57;;;9.40;;
3571;SDS011;7958;53.024;12.970;2022-07-26T03:24:50;11.40;;;9.80;;
3571;SDS011;7958;53.024;12.970;2022-07-26T03:27:16;12.00;;;9.03;;
3571;SDS011;7958;53.024;12.970;2022-07-26T03:29:43;16.50;;;8.53;;
3571;SDS011;7958;53.024;12.970;2022-07-26T03:32:09;12.43;;;9.50;;
3571;SDS011;7958;53.024;12.970;2022-07-26T03:34:35;12.87;;;9.50;;
3571;SDS011;7958;53.024;12.970;2022-07-26T03:37:02;11.90;;;8.43;;
3571;SDS011;7958;53.024;12.970;2022-07-26T03:39:29;12.10;;;9.13;;
3571;SDS011;7958;53.024;12.970;2022-07-26T03:41:56;14.67;;;8.93;;
3571;SDS011;7958;53.024;12.970;2022-07-26T03:44:22;11.03;;;8.80;;
3571;SDS011;7958;53.024;12.970;2022-07-26T03:46:48;10.70;;;8.00;;
3571;SDS011;7958;53.024;12.970;2022-07-26T03:49:15;12.60;;;8.30;;
3571;SDS011;7958;53.024;12.970;2022-07-26T03:51:41;10.17;;;8.20;;
3571;SDS011;7958;53.024;12.970;2022-07-26T03:54:07;16.70;;;8.80;;
3571;SDS011;7958;53.024;12.970;2022-07-26T03:56:35;13.70;;;7.93;;
3571;SDS011;7958;53.024;12.970;2022-07-26T03:59:02;12.93;;;8.50;;
3571;SDS011;7958;53.024;12.970;2022-07-26T04:01:30;11.30;;;7.80;;
3571;SDS011;7958;53.024;12.970;2022-07-26T04:03:57;15.03;;;7.90;;
3571;SDS011;7958;53.024;12.970;2022-07-26T04:06:23;15.30;;;8.17;;
3571;SDS011;7958;53.024;12.970;2022-07-26T04:08:49;10.03;;;7.77;;
3571;SDS011;7958;53.024;12.970;2022-07-26T04:11:16;12.07;;;7.57;;
3571;SDS011;7958;53.024;12.970;2022-07-26T04:13:43;9.70;;;7.13;;
3571;SDS011;7958;53.024;12.970;2022-07-26T04:16:10;8.87;;;6.87;;
3571;SDS011;7958;53.024;12.970;2022-07-26T04:18:36;11.57;;;7.90;;
3571;SDS011;7958;53.024;12.970;2022-07-26T04:21:03;12.40;;;7.77;;
3571;SDS011;7958;53.024;12.970;2022-07-26T04:23:29;12.70;;;6.83;;
3571;SDS011;7958;53.024;12.970;2022-07-26T04:25:56;8.37;;;6.53;;
3571;SDS011;7958;53.024;12.970;2022-07-26T04:28:22;13.87;;;7.10;;
3571;SDS011;7958;53.024;12.970;2022-07-26T04:30:52;8.20;;;6.60;;
3571;SDS011;7958;53.024;12.970;2022-07-26T04:33:19;10.67;;;8.20;;
3571;SDS011;7958;53.024;12.970;2022-07-26T04:35:45;13.10;;;6.97;;
3571;SDS011;7958;53.024;12.970;2022-07-26T04:38:11;7.87;;;6.37;;
3571;SDS011;7958;53.024;12.970;2022-07-26T04:40:38;9.40;;;6.67;;
3571;SDS011;7958;53.024;12.970;2022-07-26T04:43:04;11.37;;;6.00;;
3571;SDS011;7958;53.024;12.970;2022-07-26T04:45:31;9.73;;;5.90;;
3571;SDS011;7958;53.024;12.970;2022-07-26T04:47:58;7.40;;;6.00;;
3571;SDS011;7958;53.024;12.970;2022-07-26T04:50:25;7.93;;;5.70;;
3571;SDS011;7958;53.024;12.970;2022-07-26T04:52:53;9.80;;;5.80;;
3571;SDS011;7958;53.024;12.970;2022-07-26T04:55:19;9.73;;;6.00;;
3571;SDS011;7958;53.024;12.970;2022-07-26T04:57:46;9.00;;;4.83;;
3571;SDS011;7958;53.024;12.970;2022-07-26T05:00:14;9.23;;;5.97;;
3571;SDS011;7958;53.024;12.970;2022-07-26T05:02:41;10.67;;;5.30;;
3571;SDS011;7958;53.024;12.970;2022-07-26T05:05:09;12.07;;;5.30;;
3571;SDS011;7958;53.024;12.970;2022-07-26T05:07:39;8.47;;;5.43;;
3571;SDS011;7958;53.024;12.970;2022-07-26T05:10:06;9.57;;;4.77;;
3571;SDS011;7958;53.024;12.970;2022-07-26T05:12:33;9.37;;;5.47;;
3571;SDS011;7958;53.024;12.970;2022-07-26T05:15:00;7.60;;;4.80;;
3571;SDS011;7958;53.024;12.970;2022-07-26T05:17:26;6.93;;;5.20;;
3571;SDS011;7958;53.024;12.970;2022-07-26T05:19:52;6.40;;;4.20;;
3571;SDS011;7958;53.024;12.970;2022-07-26T05:22:20;8.37;;;4.47;;
3571;SDS011;7958;53.024;12.970;2022-07-26T05:24:46;8.80;;;4.50;;
3571;SDS011;7958;53.024;12.970;2022-07-26T05:27:13;6.40;;;5.00;;
3571;SDS011;7958;53.024;12.970;2022-07-26T05:29:39;12.17;;;5.53;;
3571;SDS011;7958;53.024;12.970;2022-07-26T05:32:06;11.33;;;4.60;;
3571;SDS011;7958;53.024;12.970;2022-07-26T05:34:33;8.70;;;4.20;;
3571;SDS011;7958;53.024;12.970;2022-07-26T05:36:59;8.33;;;3.83;;
3571;SDS011;7958;53.024;12.970;2022-07-26T05:39:27;7.50;;;3.83;;
3571;SDS011;7958;53.024;12.970;2022-07-26T05:41:53;4.87;;;3.60;;
3571;SDS011;7958;53.024;12.970;2022-07-26T05:44:19;4.00;;;3.57;;
3571;SDS011;7958;53.024;12.970;2022-07-26T05:46:48;5.50;;;4.17;;
3571;SDS011;7958;53.024;12.970;2022-07-26T05:49:14;9.57;;;4.10;;
3571;SDS011;7958;53.024;12.970;2022-07-26T05:51:41;10.07;;;4.13;;
3571;SDS011;7958;53.024;12.970;2022-07-26T05:54:07;4.83;;;3.63;;
3571;SDS011;7958;53.024;12.970;2022-07-26T05:56:35;10.93;;;3.80;;
3571;SDS011;7958;53.024;12.970;2022-07-26T05:59:02;5.10;;;3.43;;
3571;SDS011;7958;53.024;12.970;2022-07-26T06:01:28;7.07;;;3.73;;
3571;SDS011;7958;53.024;12.970;2022-07-26T06:03:56;5.93;;;4.00;;
3571;SDS011;7958;53.024;12.970;2022-07-26T06:06:23;12.47;;;3.57;;
3571;SDS011;7958;53.024;12.970;2022-07-26T06:08:49;9.93;;;3.80;;
3571;SDS011;7958;53.024;12.970;2022-07-26T06:11:15;14.33;;;4.10;;
3571;SDS011;7958;53.024;12.970;2022-07-26T06:13:43;5.97;;;3.03;;
3571;SDS011;7958;53.024;12.970;2022-07-26T06:16:09;5.80;;;3.03;;
3571;SDS011;7958;53.024;12.970;2022-07-26T06:18:36;10.13;;;3.90;;
3571;SDS011;7958;53.024;12.970;2022-07-26T06:21:02;9.20;;;3.43;;
3571;SDS011;7958;53.024;12.970;2022-07-26T06:23:29;5.47;;;3.00;;
3571;SDS011;7958;53.024;12.970;2022-07-26T06:25:55;6.80;;;2.83;;
3571;SDS011;7958;53.024;12.970;2022-07-26T06:28:21;4.53;;;2.63;;
3571;SDS011;7958;53.024;12.970;2022-07-26T06:30:49;6.93;;;2.70;;
3571;SDS011;7958;53.024;12.970;2022-07-26T06:33:16;14.67;;;2.73;;
3571;SDS011;7958;53.024;12.970;2022-07-26T06:35:42;7.40;;;2.60;;
3571;SDS011;7958;53.024;12.970;2022-07-26T06:38:08;4.73;;;2.60;;
3571;SDS011;7958;53.024;12.970;2022-07-26T06:40:35;4.87;;;3.10;;
3571;SDS011;7958;53.024;12.970;2022-07-26T06:43:01;5.83;;;3.13;;
3571;SDS011;7958;53.024;12.970;2022-07-26T06:45:28;8.33;;;2.80;;
3571;SDS011;7958;53.024;12.970;2022-07-26T06:47:56;6.57;;;2.53;;
3571;SDS011;7958;53.024;12.970;2022-07-26T06:50:23;4.50;;;2.30;;
3571;SDS011;7958;53.024;12.970;2022-07-26T06:52:49;5.10;;;2.47;;
3571;SDS011;7958;53.024;12.970;2022-07-26T06:55:15;17.33;;;3.80;;
3571;SDS011;7958;53.024;12.970;2022-07-26T06:57:42;10.10;;;3.00;;
3571;SDS011;7958;53.024;12.970;2022-07-26T07:00:08;9.63;;;2.67;;
3571;SDS011;7958;53.024;12.970;2022-07-26T07:02:36;5.20;;;2.40;;
3571;SDS011;7958;53.024;12.970;2022-07-26T07:05:04;6.80;;;2.60;;
3571;SDS011;7958;53.024;12.970;2022-07-26T07:07:31;6.10;;;2.40;;
3571;SDS011;7958;53.024;12.970;2022-07-26T07:09:57;5.67;;;2.67;;
3571;SDS011;7958;53.024;12.970;2022-07-26T07:12:24;5.43;;;2.30;;
3571;SDS011;7958;53.024;12.970;2022-07-26T07:14:50;16.60;;;3.40;;
3571;SDS011;7958;53.024;12.970;2022-07-26T07:17:17;5.70;;;3.07;;
3571;SDS011;7958;53.024;12.970;2022-07-26T07:19:44;8.20;;;2.83;;
3571;SDS011;7958;53.024;12.970;2022-07-26T07:22:12;8.17;;;2.67;;
3571;SDS011;7958;53.024;12.970;2022-07-26T07:24:38;9.10;;;3.00;;
3571;SDS011;7958;53.024;12.970;2022-07-26T07:27:05;8.03;;;2.83;;
3571;SDS011;7958;53.024;12.970;2022-07-26T07:29:31;7.80;;;2.90;;
3571;SDS011;7958;53.024;12.970;2022-07-26T07:31:58;6.00;;;2.37;;
3571;SDS011;7958;53.024;12.970;2022-07-26T07:34:24;7.83;;;2.40;;
3571;SDS011;7958;53.024;12.970;2022-07-26T07:36:51;7.80;;;2.50;;
3571;SDS011;7958;53.024;12.970;2022-07-26T07:39:19;9.73;;;2.50;;
3571;SDS011;7958;53.024;12.970;2022-07-26T07:41:46;5.87;;;1.97;;
3571;SDS011;7958;53.024;12.970;2022-07-26T07:44:13;5.50;;;2.10;;
3571;SDS011;7958;53.024;12.970;2022-07-26T07:46:39;5.30;;;2.63;;
3571;SDS011;7958;53.024;12.970;2022-07-26T07:49:06;6.60;;;2.13;;
3571;SDS011;7958;53.024;12.970;2022-07-26T07:51:34;7.33;;;2.20;;
3571;SDS011;7958;53.024;12.970;2022-07-26T07:54:00;5.27;;;2.83;;
3571;SDS011;7958;53.024;12.970;2022-07-26T07:56:28;6.33;;;2.60;;
3571;SDS011;7958;53.024;12.970;2022-07-26T07:58:54;7.10;;;2.10;;
3571;SDS011;7958;53.024;12.970;2022-07-26T08:01:23;10.00;;;2.23;;
3571;SDS011;7958;53.024;12.970;2022-07-26T08:03:49;4.53;;;2.43;;
3571;SDS011;7958;53.024;12.970;2022-07-26T08:06:16;4.33;;;2.17;;
3571;SDS011;7958;53.024;12.970;2022-07-26T08:08:42;3.80;;;2.17;;
3571;SDS011;7958;53.024;12.970;2022-07-26T08:11:09;3.77;;;2.17;;
3571;SDS011;7958;53.024;12.970;2022-07-26T08:13:37;4.73;;;2.40;;
3571;SDS011;7958;53.024;12.970;2022-07-26T08:16:04;5.70;;;2.27;;
3571;SDS011;7958;53.024;12.970;2022-07-26T08:18:30;5.47;;;2.20;;
3571;SDS011;7958;53.024;12.970;2022-07-26T08:20:56;7.83;;;2.47;;
3571;SDS011;7958;53.024;12.970;2022-07-26T08:23:23;5.10;;;2.30;;
3571;SDS011;7958;53.024;12.970;2022-07-26T08:25:50;9.63;;;2.40;;
3571;SDS011;7958;53.024;12.970;2022-07-26T08:28:16;5.07;;;2.10;;
3571;SDS011;7958;53.024;12.970;2022-07-26T08:30:44;4.83;;;2.03;;
3571;SDS011;7958;53.024;12.970;2022-07-26T08:33:10;4.87;;;2.40;;
3571;SDS011;7958;53.024;12.970;2022-07-26T08:35:37;5.23;;;1.97;;
3571;SDS011;7958;53.024;12.970;2022-07-26T08:38:03;3.63;;;2.20;;
3571;SDS011;7958;53.024;12.970;2022-07-26T08:40:29;10.47;;;2.20;;
3571;SDS011;7958;53.024;12.970;2022-07-26T08:42:57;4.83;;;2.17;;
3571;SDS011;7958;53.024;12.970;2022-07-26T08:45:24;3.37;;;1.60;;
3571;SDS011;7958;53.024;12.970;2022-07-26T08:47:53;3.23;;;1.50;;
3571;SDS011;7958;53.024;12.970;2022-07-26T08:50:20;4.83;;;1.43;;
3571;SDS011;7958;53.024;12.970;2022-07-26T08:52:47;3.83;;;1.63;;
3571;SDS011;7958;53.024;12.970;2022-07-26T08:55:14;3.80;;;1.93;;
3571;SDS011;7958;53.024;12.970;2022-07-26T08:57:41;12.33;;;2.77;;
3571;SDS011;7958;53.024;12.970;2022-07-26T09:00:18;2.07;;;1.50;;
3571;SDS011;7958;53.024;12.970;2022-07-26T09:03:00;5.90;;;2.07;;
3571;SDS011;7958;53.024;12.970;2022-07-26T09:05:28;3.97;;;1.90;;
3571;SDS011;7958;53.024;12.970;2022-07-26T09:07:56;3.27;;;2.10;;
3571;SDS011;7958;53.024;12.970;2022-07-26T09:10:23;4.90;;;1.80;;
3571;SDS011;7958;53.024;12.970;2022-07-26T09:12:52;5.00;;;1.97;;
3571;SDS011;7958;53.024;12.970;2022-07-26T09:15:20;2.20;;;1.87;;
3571;SDS011;7958;53.024;12.970;2022-07-26T09:17:48;7.30;;;2.00;;
3571;SDS011;7958;53.024;12.970;2022-07-26T09:20:18;6.30;;;2.30;;
3571;SDS011;7958;53.024;12.970;2022-07-26T09:23:00;6.00;;;2.10;;
3571;SDS011;7958;53.024;12.970;2022-07-26T09:25:28;3.03;;;1.70;;
3571;SDS011;7958;53.024;12.970;2022-07-26T09:27:55;1.60;;;1.40;;
3571;SDS011;7958;53.024;12.970;2022-07-26T09:30:23;2.17;;;1.60;;
3571;SDS011;7958;53.024;12.970;2022-07-26T09:32:57;3.97;;;1.57;;
3571;SDS011;7958;53.024;12.970;2022-07-26T09:35:26;4.63;;;2.03;;
3571;SDS011;7958;53.024;12.970;2022-07-26T09:37:54;4.27;;;2.00;;
3571;SDS011;7958;53.024;12.970;2022-07-26T09:40:21;6.00;;;1.90;;
3571;SDS011;7958;53.024;12.970;2022-07-26T09:42:54;5.27;;;1.93;;
3571;SDS011;7958;53.024;12.970;2022-07-26T09:45:21;2.30;;;1.90;;
3571;SDS011;7958;53.024;12.970;2022-07-26T09:47:47;1.90;;;1.37;;
3571;SDS011;7958;53.024;12.970;2022-07-26T09:50:14;5.43;;;1.70;;
3571;SDS011;7958;53.024;12.970;2022-07-26T09:55:31;2.77;;;1.90;;
3571;SDS011;7958;53.024;12.970;2022-07-26T09:57:58;4.60;;;1.70;;
3571;SDS011;7958;53.024;12.970;2022-07-26T10:00:27;4.27;;;1.73;;
3571;SDS011;7958;53.024;12.970;2022-07-26T10:02:54;1.83;;;1.63;;
3571;SDS011;7958;53.024;12.970;2022-07-26T10:05:21;3.00;;;2.00;;
3571;SDS011;7958;53.024;12.970;2022-07-26T10:07:47;3.33;;;1.93;;
3571;SDS011;7958;53.024;12.970;2022-07-26T10:10:19;2.10;;;1.90;;
3571;SDS011;7958;53.024;12.970;2022-07-26T10:12:48;2.07;;;1.70;;
3571;SDS011;7958;53.024;12.970;2022-07-26T10:15:31;2.53;;;1.87;;
3571;SDS011;7958;53.024;12.970;2022-07-26T10:17:59;5.50;;;2.13;;
3571;SDS011;7958;53.024;12.970;2022-07-26T10:20:38;4.90;;;1.70;;
3571;SDS011;7958;53.024;12.970;2022-07-26T10:26:00;2.77;;;1.90;;
3571;SDS011;7958;53.024;12.970;2022-07-26T10:28:27;2.80;;;1.70;;
3571;SDS011;7958;53.024;12.970;2022-07-26T10:33:49;2.60;;;1.60;;
3571;SDS011;7958;53.024;12.970;2022-07-26T10:36:23;5.27;;;2.13;;
3571;SDS011;7958;53.024;12.970;2022-07-26T10:38:58;1.80;;;1.70;;
3571;SDS011;7958;53.024;12.970;2022-07-26T10:41:38;3.30;;;1.80;;
3571;SDS011;7958;53.024;12.970;2022-07-26T10:44:14;6.10;;;1.50;;
3571;SDS011;7958;53.024;12.970;2022-07-26T10:46:57;6.40;;;1.70;;
3571;SDS011;7958;53.024;12.970;2022-07-26T10:49:27;5.90;;;2.40;;
3571;SDS011;7958;53.024;12.970;2022-07-26T10:52:03;7.27;;;2.17;;
3571;SDS011;7958;53.024;12.970;2022-07-26T10:54:30;8.00;;;2.50;;
3571;SDS011;7958;53.024;12.970;2022-07-26T10:56:58;4.17;;;2.30;;
3571;SDS011;7958;53.024;12.970;2022-07-26T10:59:29;4.57;;;1.97;;
3571;SDS011;7958;53.024;12.970;2022-07-26T11:01:57;5.33;;;2.70;;
3571;SDS011;7958;53.024;12.970;2022-07-26T11:04:23;4.53;;;2.80;;
3571;SDS011;7958;53.024;12.970;2022-07-26T11:06:50;4.40;;;3.00;;
3571;SDS011;7958;53.024;12.970;2022-07-26T11:09:17;4.40;;;2.77;;
3571;SDS011;7958;53.024;12.970;2022-07-26T11:11:43;2.53;;;2.30;;
3571;SDS011;7958;53.024;12.970;2022-07-26T11:14:13;2.20;;;2.10;;
3571;SDS011;7958;53.024;12.970;2022-07-26T11:16:41;5.63;;;2.47;;
3571;SDS011;7958;53.024;12.970;2022-07-26T11:19:12;5.67;;;2.90;;
3571;SDS011;7958;53.024;12.970;2022-07-26T11:21:40;2.53;;;2.33;;
3571;SDS011;7958;53.024;12.970;2022-07-26T11:24:07;2.50;;;2.30;;
3571;SDS011;7958;53.024;12.970;2022-07-26T11:26:39;5.73;;;2.60;;
3571;SDS011;7958;53.024;12.970;2022-07-26T11:29:05;2.20;;;2.10;;
3571;SDS011;7958;53.024;12.970;2022-07-26T11:31:37;2.30;;;1.97;;
3571;SDS011;7958;53.024;12.970;2022-07-26T11:34:05;2.70;;;2.13;;
3571;SDS011;7958;53.024;12.970;2022-07-26T11:36:33;1.90;;;1.77;;
3571;SDS011;7958;53.024;12.970;2022-07-26T11:39:01;2.13;;;1.90;;
3571;SDS011;7958;53.024;12.970;2022-07-26T11:41:29;1.97;;;1.87;;
3571;SDS011;7958;53.024;12.970;2022-07-26T11:43:57;2.00;;;1.90;;
3571;SDS011;7958;53.024;12.970;2022-07-26T11:46:30;2.03;;;1.50;;
3571;SDS011;7958;53.024;12.970;2022-07-26T11:48:59;1.50;;;1.40;;
3571;SDS011;7958;53.024;12.970;2022-07-26T11:51:26;1.70;;;1.60;;
3571;SDS011;7958;53.024;12.970;2022-07-26T11:53:52;4.10;;;1.53;;
3571;SDS011;7958;53.024;12.970;2022-07-26T11:56:23;2.30;;;1.37;;
3571;SDS011;7958;53.024;12.970;2022-07-26T11:58:51;2.10;;;1.60;;
3571;SDS011;7958;53.024;12.970;2022-07-26T12:01:20;2.20;;;2.00;;
3571;SDS011;7958;53.024;12.970;2022-07-26T12:03:49;2.50;;;1.57;;
3571;SDS011;7958;53.024;12.970;2022-07-26T12:06:19;1.20;;;1.10;;
3571;SDS011;7958;53.024;12.970;2022-07-26T12:08:47;1.97;;;1.10;;
3571;SDS011;7958;53.024;12.970;2022-07-26T12:11:15;1.67;;;1.10;;
3571;SDS011;7958;53.024;12.970;2022-07-26T12:13:49;1.23;;;1.00;;
3571;SDS011;7958;53.024;12.970;2022-07-26T12:19:06;1.33;;;1.13;;
3571;SDS011;7958;53.024;12.970;2022-07-26T12:21:38;1.93;;;0.97;;
3571;SDS011;7958;53.024;12.970;2022-07-26T12:24:06;3.73;;;1.57;;
3571;SDS011;7958;53.024;12.970;2022-07-26T12:26:33;2.20;;;1.20;;
3571;SDS011;7958;53.024;12.970;2022-07-26T12:29:00;1.20;;;1.10;;
3571;SDS011;7958;53.024;12.970;2022-07-26T12:31:40;1.50;;;1.40;;
3571;SDS011;7958;53.024;12.970;2022-07-26T12:34:07;1.10;;;1.03;;
3571;SDS011;7958;53.024;12.970;2022-07-26T12:36:33;1.60;;;1.50;;
3571;SDS011;7958;53.024;12.970;2022-07-26T12:39:01;2.03;;;1.30;;
3571;SDS011;7958;53.024;12.970;2022-07-26T12:41:32;1.63;;;1.53;;
3571;SDS011;7958;53.024;12.970;2022-07-26T12:43:59;1.77;;;1.67;;
3571;SDS011;7958;53.024;12.970;2022-07-26T12:46:25;3.20;;;1.43;;
3571;SDS011;7958;53.024;12.970;2022-07-26T12:48:52;1.63;;;1.40;;
3571;SDS011;7958;53.024;12.970;2022-07-26T12:51:18;1.70;;;1.60;;
3571;SDS011;7958;53.024;12.970;2022-07-26T12:53:45;2.83;;;1.47;;
3571;SDS011;7958;53.024;12.970;2022-07-26T12:56:13;1.03;;;1.03;;
3571;SDS011;7958;53.024;12.970;2022-07-26T12:58:39;2.73;;;2.13;;
3571;SDS011;7958;53.024;12.970;2022-07-26T13:01:05;1.57;;;1.30;;
3571;SDS011;7958;53.024;12.970;2022-07-26T13:03:32;3.63;;;1.10;;
3571;SDS011;7958;53.024;12.970;2022-07-26T13:05:58;1.33;;;1.27;;
3571;SDS011;7958;53.024;12.970;2022-07-26T13:08:26;1.40;;;1.30;;
3571;SDS011;7958;53.024;12.970;2022-07-26T13:10:53;1.03;;;1.03;;
3571;SDS011;7958;53.024;12.970;2022-07-26T13:13:20;2.40;;;1.30;;
3571;SDS011;7958;53.024;12.970;2022-07-26T13:15:47;2.07;;;1.30;;
3571;SDS011;7958;53.024;12.970;2022-07-26T13:18:13;2.00;;;1.50;;
3571;SDS011;7958;53.024;12.970;2022-07-26T13:20:39;2.20;;;1.30;;
3571;SDS011;7958;53.024;12.970;2022-07-26T13:23:06;3.20;;;1.27;;
3571;SDS011;7958;53.024;12.970;2022-07-26T13:25:35;2.57;;;1.20;;
3571;SDS011;7958;53.024;12.970;2022-07-26T13:28:02;1.20;;;1.10;;
3571;SDS011;7958;53.024;12.970;2022-07-26T13:30:30;1.53;;;1.10;;
3571;SDS011;7958;53.024;12.970;2022-07-26T13:32:56;2.00;;;1.40;;
3571;SDS011;7958;53.024;12.970;2022-07-26T13:35:23;1.80;;;1.20;;
3571;SDS011;7958;53.024;12.970;2022-07-26T13:37:49;7.90;;;2.03;;
3571;SDS011;7958;53.024;12.970;2022-07-26T13:40:16;2.40;;;1.40;;
3571;SDS011;7958;53.024;12.970;2022-07-26T13:42:42;2.93;;;1.90;;
3571;SDS011;7958;53.024;12.970;2022-07-26T13:45:09;5.90;;;2.67;;
3571;SDS011;7958;53.024;12.970;2022-07-26T13:47:37;3.83;;;2.97;;
3571;SDS011;7958;53.024;12.970;2022-07-26T13:50:04;8.30;;;3.10;;
3571;SDS011;7958;53.024;12.970;2022-07-26T13:52:31;3.83;;;2.67;;
3571;SDS011;7958;53.024;12.970;2022-07-26T13:54:58;3.07;;;1.70;;
3571;SDS011;7958;53.024;12.970;2022-07-26T13:57:24;1.90;;;1.80;;
3571;SDS011;7958;53.024;12.970;2022-07-26T13:59:51;2.10;;;1.90;;
3571;SDS011;7958;53.024;12.970;2022-07-26T14:02:17;1.93;;;1.40;;
3571;SDS011;7958;53.024;12.970;2022-07-26T14:04:44;2.50;;;1.70;;
3571;SDS011;7958;53.024;12.970;2022-07-26T14:07:12;1.30;;;1.20;;
3571;SDS011;7958;53.024;12.970;2022-07-26T14:09:38;1.30;;;1.13;;
3571;SDS011;7958;53.024;12.970;2022-07-26T14:12:05;2.50;;;1.20;;
3571;SDS011;7958;53.024;12.970;2022-07-26T14:14:32;6.13;;;1.53;;
3571;SDS011;7958;53.024;12.970;2022-07-26T14:16:58;1.67;;;1.00;;
3571;SDS011;7958;53.024;12.970;2022-07-26T14:19:25;1.50;;;1.20;;
3571;SDS011;7958;53.024;12.970;2022-07-26T14:21:53;2.23;;;1.20;;
3571;SDS011;7958;53.024;12.970;2022-07-26T14:24:19;1.70;;;1.00;;
3571;SDS011;7958;53.024;12.970;2022-07-26T14:26:48;1.37;;;1.07;;
3571;SDS011;7958;53.024;12.970;2022-07-26T14:29:15;2.83;;;1.07;;
3571;SDS011;7958;53.024;12.970;2022-07-26T14:31:48;1.33;;;0.90;;
3571;SDS011;7958;53.024;12.970;2022-07-26T14:34:16;0.80;;;0.80;;
3571;SDS011;7958;53.024;12.970;2022-07-26T14:36:44;0.90;;;0.90;;
3571;SDS011;7958;53.024;12.970;2022-07-26T14:39:12;1.10;;;1.00;;
3571;SDS011;7958;53.024;12.970;2022-07-26T14:41:39;2.70;;;0.83;;
3571;SDS011;7958;53.024;12.970;2022-07-26T14:44:05;2.00;;;0.80;;
3571;SDS011;7958;53.024;12.970;2022-07-26T14:46:31;3.10;;;1.20;;
3571;SDS011;7958;53.024;12.970;2022-07-26T14:48:58;1.60;;;0.87;;
3571;SDS011;7958;53.024;12.970;2022-07-26T14:51:24;1.63;;;0.90;;
3571;SDS011;7958;53.024;12.970;2022-07-26T14:53:51;1.00;;;0.80;;
3571;SDS011;7958;53.024;12.970;2022-07-26T14:56:20;1.70;;;1.00;;
3571;SDS011;7958;53.024;12.970;2022-07-26T14:58:47;2.30;;;1.10;;
3571;SDS011;7958;53.024;12.970;2022-07-26T15:01:13;0.87;;;0.87;;
3571;SDS011;7958;53.024;12.970;2022-07-26T15:03:39;1.20;;;0.83;;
3571;SDS011;7958;53.024;12.970;2022-07-26T15:06:06;1.27;;;0.80;;
3571;SDS011;7958;53.024;12.970;2022-07-26T15:08:32;2.93;;;1.00;;